Alkol, West Virginia
Current Conditions -  °F | °C
As of 1:54 PM on Tuesday 27 Jan 2015 (Local Time) from KCRW Reporting Station
Light Snow Light Snow  
Wind Chill: 16°   Ceiling: 2300
Heat Index: 23°   Visibility: 9mi
Dew Point: 14°   Wind: 6mph
Humidity: 68%   Direction: NA
Pressure: 30.01"   Gusts: NA
Location:  38.16°N, 81.92°W
Report Text: KCRW 271854Z VRB05KT 9SM -SN BKN023 M05/M10 A3001 RMK AO2 SLP174 P0000 T10501100
Loading
Personal Weather Stations






























Interactive Weather Map New forecast layout! Learn more

10-Day Weather Forecast

Advertisements
Track Severe Weather on mobile